sensor_id;sensor_type;location;lat;lon;timestamp;P1;durP1;ratioP1;P2;durP2;ratioP2
1020;SDS011;499;42.648;23.270;2023-03-14T00:00:05;1.00;;;0.90;;
1020;SDS011;499;42.648;23.270;2023-03-14T00:02:35;1.83;;;1.73;;
1020;SDS011;499;42.648;23.270;2023-03-14T00:05:07;1.00;;;0.90;;
1020;SDS011;499;42.648;23.270;2023-03-14T00:07:36;1.00;;;0.90;;
1020;SDS011;499;42.648;23.270;2023-03-14T00:10:05;1.00;;;0.90;;
1020;SDS011;499;42.648;23.270;2023-03-14T00:12:34;1.10;;;1.00;;
1020;SDS011;499;42.648;23.270;2023-03-14T00:15:01;1.13;;;1.03;;
1020;SDS011;499;42.648;23.270;2023-03-14T00:17:34;1.10;;;1.00;;
1020;SDS011;499;42.648;23.270;2023-03-14T00:20:02;1.10;;;1.00;;
1020;SDS011;499;42.648;23.270;2023-03-14T00:22:33;1.45;;;1.35;;
1020;SDS011;499;42.648;23.270;2023-03-14T00:25:02;1.10;;;1.00;;
1020;SDS011;499;42.648;23.270;2023-03-14T00:27:31;3.05;;;2.85;;
1020;SDS011;499;42.648;23.270;2023-03-14T00:29:58;1.10;;;1.00;;
1020;SDS011;499;42.648;23.270;2023-03-14T00:32:25;0.90;;;0.90;;
1020;SDS011;499;42.648;23.270;2023-03-14T00:34:52;1.35;;;1.25;;
1020;SDS011;499;42.648;23.270;2023-03-14T00:37:19;1.00;;;0.90;;
1020;SDS011;499;42.648;23.270;2023-03-14T00:39:50;1.00;;;0.90;;
1020;SDS011;499;42.648;23.270;2023-03-14T00:42:17;1.20;;;1.10;;
1020;SDS011;499;42.648;23.270;2023-03-14T00:44:48;0.80;;;0.80;;
1020;SDS011;499;42.648;23.270;2023-03-14T00:47:15;1.05;;;0.90;;
1020;SDS011;499;42.648;23.270;2023-03-14T00:49:42;1.20;;;1.10;;
1020;SDS011;499;42.648;23.270;2023-03-14T00:52:09;1.00;;;0.90;;
1020;SDS011;499;42.648;23.270;2023-03-14T00:54:36;1.08;;;0.98;;
1020;SDS011;499;42.648;23.270;2023-03-14T00:57:05;1.03;;;0.93;;
1020;SDS011;499;42.648;23.270;2023-03-14T00:59:33;1.00;;;0.90;;
1020;SDS011;499;42.648;23.270;2023-03-14T01:02:00;1.33;;;1.23;;
1020;SDS011;499;42.648;23.270;2023-03-14T01:04:30;1.30;;;1.20;;
1020;SDS011;499;42.648;23.270;2023-03-14T01:06:57;1.40;;;1.30;;
1020;SDS011;499;42.648;23.270;2023-03-14T01:09:24;1.10;;;1.00;;
1020;SDS011;499;42.648;23.270;2023-03-14T01:11:51;1.20;;;1.10;;
1020;SDS011;499;42.648;23.270;2023-03-14T01:14:19;1.10;;;1.00;;
1020;SDS011;499;42.648;23.270;2023-03-14T01:16:51;2.87;;;2.67;;
1020;SDS011;499;42.648;23.270;2023-03-14T01:19:18;1.00;;;0.90;;
1020;SDS011;499;42.648;23.270;2023-03-14T01:21:45;1.00;;;0.90;;
1020;SDS011;499;42.648;23.270;2023-03-14T01:24:12;1.10;;;1.00;;
1020;SDS011;499;42.648;23.270;2023-03-14T01:26:41;1.02;;;0.93;;
1020;SDS011;499;42.648;23.270;2023-03-14T01:29:08;2.75;;;1.67;;
1020;SDS011;499;42.648;23.270;2023-03-14T01:31:36;1.15;;;1.05;;
1020;SDS011;499;42.648;23.270;2023-03-14T01:34:03;1.00;;;0.90;;
1020;SDS011;499;42.648;23.270;2023-03-14T01:36:34;1.75;;;1.65;;
1020;SDS011;499;42.648;23.270;2023-03-14T01:39:01;1.00;;;0.90;;
1020;SDS011;499;42.648;23.270;2023-03-14T01:41:28;7.43;;;3.35;;
1020;SDS011;499;42.648;23.270;2023-03-14T01:43:55;1.02;;;0.93;;
1020;SDS011;499;42.648;23.270;2023-03-14T01:46:32;1.30;;;1.20;;
1020;SDS011;499;42.648;23.270;2023-03-14T01:51:55;1.27;;;1.17;;
1020;SDS011;499;42.648;23.270;2023-03-14T01:54:26;0.90;;;0.90;;
1020;SDS011;499;42.648;23.270;2023-03-14T01:56:58;1.15;;;1.05;;
1020;SDS011;499;42.648;23.270;2023-03-14T01:59:31;1.02;;;0.93;;
1020;SDS011;499;42.648;23.270;2023-03-14T02:02:00;2.00;;;1.90;;
1020;SDS011;499;42.648;23.270;2023-03-14T02:04:29;1.20;;;1.10;;
1020;SDS011;499;42.648;23.270;2023-03-14T02:07:02;1.52;;;1.42;;
1020;SDS011;499;42.648;23.270;2023-03-14T02:09:36;1.20;;;1.10;;
1020;SDS011;499;42.648;23.270;2023-03-14T02:12:05;1.20;;;1.10;;
1020;SDS011;499;42.648;23.270;2023-03-14T02:14:34;1.00;;;0.90;;
1020;SDS011;499;42.648;23.270;2023-03-14T02:17:04;1.00;;;0.90;;
1020;SDS011;499;42.648;23.270;2023-03-14T02:19:39;1.00;;;0.90;;
1020;SDS011;499;42.648;23.270;2023-03-14T02:22:20;0.90;;;0.90;;
1020;SDS011;499;42.648;23.270;2023-03-14T02:24:49;0.90;;;0.90;;
1020;SDS011;499;42.648;23.270;2023-03-14T02:27:26;1.10;;;1.10;;
1020;SDS011;499;42.648;23.270;2023-03-14T02:29:54;1.00;;;0.90;;
1020;SDS011;499;42.648;23.270;2023-03-14T02:32:25;0.90;;;0.90;;
1020;SDS011;499;42.648;23.270;2023-03-14T02:34:54;1.00;;;0.90;;
1020;SDS011;499;42.648;23.270;2023-03-14T02:37:23;1.20;;;1.10;;
1020;SDS011;499;42.648;23.270;2023-03-14T02:39:54;1.00;;;0.90;;
1020;SDS011;499;42.648;23.270;2023-03-14T02:42:22;0.80;;;0.80;;
1020;SDS011;499;42.648;23.270;2023-03-14T02:44:51;1.75;;;1.30;;
1020;SDS011;499;42.648;23.270;2023-03-14T02:47:21;1.10;;;1.00;;
1020;SDS011;499;42.648;23.270;2023-03-14T02:49:53;1.23;;;1.13;;
1020;SDS011;499;42.648;23.270;2023-03-14T02:52:25;1.30;;;1.20;;
1020;SDS011;499;42.648;23.270;2023-03-14T02:54:52;0.80;;;0.80;;
1020;SDS011;499;42.648;23.270;2023-03-14T02:57:19;1.58;;;1.48;;
1020;SDS011;499;42.648;23.270;2023-03-14T02:59:46;1.10;;;1.00;;
1020;SDS011;499;42.648;23.270;2023-03-14T03:02:15;1.30;;;1.20;;
1020;SDS011;499;42.648;23.270;2023-03-14T03:04:42;1.23;;;1.13;;
1020;SDS011;499;42.648;23.270;2023-03-14T03:07:10;1.00;;;0.90;;
1020;SDS011;499;42.648;23.270;2023-03-14T03:09:37;1.65;;;1.55;;
1020;SDS011;499;42.648;23.270;2023-03-14T03:12:06;0.90;;;0.90;;
1020;SDS011;499;42.648;23.270;2023-03-14T03:14:33;1.10;;;1.00;;
1020;SDS011;499;42.648;23.270;2023-03-14T03:17:00;1.10;;;1.00;;
1020;SDS011;499;42.648;23.270;2023-03-14T03:19:30;1.20;;;1.10;;
1020;SDS011;499;42.648;23.270;2023-03-14T03:21:57;1.10;;;1.00;;
1020;SDS011;499;42.648;23.270;2023-03-14T03:24:24;1.08;;;1.00;;
1020;SDS011;499;42.648;23.270;2023-03-14T03:26:52;0.90;;;0.90;;
1020;SDS011;499;42.648;23.270;2023-03-14T03:29:19;1.33;;;1.23;;
1020;SDS011;499;42.648;23.270;2023-03-14T03:31:47;1.20;;;1.10;;
1020;SDS011;499;42.648;23.270;2023-03-14T03:34:14;0.80;;;0.80;;
1020;SDS011;499;42.648;23.270;2023-03-14T03:36:42;0.90;;;0.90;;
1020;SDS011;499;42.648;23.270;2023-03-14T03:39:12;1.00;;;0.90;;
1020;SDS011;499;42.648;23.270;2023-03-14T03:41:39;1.20;;;1.10;;
1020;SDS011;499;42.648;23.270;2023-03-14T03:44:06;0.90;;;0.90;;
1020;SDS011;499;42.648;23.270;2023-03-14T03:46:33;1.10;;;1.00;;
1020;SDS011;499;42.648;23.270;2023-03-14T03:49:03;1.63;;;1.52;;
1020;SDS011;499;42.648;23.270;2023-03-14T03:51:30;1.10;;;1.00;;
1020;SDS011;499;42.648;23.270;2023-03-14T03:53:59;1.20;;;1.10;;
1020;SDS011;499;42.648;23.270;2023-03-14T03:56:26;1.10;;;1.00;;
1020;SDS011;499;42.648;23.270;2023-03-14T03:58:53;1.08;;;1.00;;
1020;SDS011;499;42.648;23.270;2023-03-14T04:01:20;1.48;;;1.27;;
1020;SDS011;499;42.648;23.270;2023-03-14T04:03:47;1.23;;;1.13;;
1020;SDS011;499;42.648;23.270;2023-03-14T04:06:15;1.20;;;1.10;;
1020;SDS011;499;42.648;23.270;2023-03-14T04:08:42;1.40;;;1.30;;
1020;SDS011;499;42.648;23.270;2023-03-14T04:11:11;1.30;;;1.20;;
1020;SDS011;499;42.648;23.270;2023-03-14T04:13:38;1.00;;;1.00;;
1020;SDS011;499;42.648;23.270;2023-03-14T04:16:09;1.10;;;1.00;;
1020;SDS011;499;42.648;23.270;2023-03-14T04:18:40;0.90;;;0.90;;
1020;SDS011;499;42.648;23.270;2023-03-14T04:21:07;1.10;;;1.00;;
1020;SDS011;499;42.648;23.270;2023-03-14T04:23:34;4.07;;;3.78;;
1020;SDS011;499;42.648;23.270;2023-03-14T04:26:02;1.60;;;1.27;;
1020;SDS011;499;42.648;23.270;2023-03-14T04:28:31;1.23;;;1.13;;
1020;SDS011;499;42.648;23.270;2023-03-14T04:30:58;1.10;;;1.00;;
1020;SDS011;499;42.648;23.270;2023-03-14T04:33:25;1.20;;;1.10;;
1020;SDS011;499;42.648;23.270;2023-03-14T04:35:53;1.10;;;1.00;;
1020;SDS011;499;42.648;23.270;2023-03-14T04:38:23;1.30;;;1.20;;
1020;SDS011;499;42.648;23.270;2023-03-14T04:40:50;1.13;;;1.05;;
1020;SDS011;499;42.648;23.270;2023-03-14T04:43:17;1.50;;;1.40;;
1020;SDS011;499;42.648;23.270;2023-03-14T04:46:02;1.30;;;1.20;;
1020;SDS011;499;42.648;23.270;2023-03-14T04:48:30;1.48;;;1.38;;
1020;SDS011;499;42.648;23.270;2023-03-14T04:51:00;0.90;;;0.90;;
1020;SDS011;499;42.648;23.270;2023-03-14T04:53:27;1.10;;;1.00;;
1020;SDS011;499;42.648;23.270;2023-03-14T04:55:55;1.40;;;1.30;;
1020;SDS011;499;42.648;23.270;2023-03-14T04:58:24;1.20;;;1.10;;
1020;SDS011;499;42.648;23.270;2023-03-14T05:00:51;0.90;;;0.90;;
1020;SDS011;499;42.648;23.270;2023-03-14T05:03:20;1.00;;;1.00;;
1020;SDS011;499;42.648;23.270;2023-03-14T05:05:53;1.15;;;1.05;;
1020;SDS011;499;42.648;23.270;2023-03-14T05:08:20;1.33;;;1.23;;
1020;SDS011;499;42.648;23.270;2023-03-14T05:10:51;1.05;;;1.00;;
1020;SDS011;499;42.648;23.270;2023-03-14T05:13:18;0.90;;;0.90;;
1020;SDS011;499;42.648;23.270;2023-03-14T05:15:46;0.93;;;0.93;;
1020;SDS011;499;42.648;23.270;2023-03-14T05:18:13;1.00;;;1.00;;
1020;SDS011;499;42.648;23.270;2023-03-14T05:20:44;1.13;;;1.02;;
1020;SDS011;499;42.648;23.270;2023-03-14T05:23:11;1.20;;;1.10;;
1020;SDS011;499;42.648;23.270;2023-03-14T05:25:38;0.90;;;0.90;;
1020;SDS011;499;42.648;23.270;2023-03-14T05:28:05;1.20;;;1.10;;
1020;SDS011;499;42.648;23.270;2023-03-14T05:30:32;1.40;;;1.30;;
1020;SDS011;499;42.648;23.270;2023-03-14T05:32:59;1.10;;;1.00;;
1020;SDS011;499;42.648;23.270;2023-03-14T05:35:29;0.90;;;0.90;;
1020;SDS011;499;42.648;23.270;2023-03-14T05:37:59;1.20;;;1.10;;
1020;SDS011;499;42.648;23.270;2023-03-14T05:40:26;0.93;;;0.90;;
1020;SDS011;499;42.648;23.270;2023-03-14T05:42:53;1.53;;;1.43;;
1020;SDS011;499;42.648;23.270;2023-03-14T05:45:20;1.10;;;1.00;;
1020;SDS011;499;42.648;23.270;2023-03-14T05:47:47;1.57;;;1.47;;
1020;SDS011;499;42.648;23.270;2023-03-14T05:50:17;0.83;;;0.83;;
1020;SDS011;499;42.648;23.270;2023-03-14T05:52:44;1.00;;;0.90;;
1020;SDS011;499;42.648;23.270;2023-03-14T05:55:12;1.47;;;1.37;;
1020;SDS011;499;42.648;23.270;2023-03-14T05:57:40;1.20;;;1.10;;
1020;SDS011;499;42.648;23.270;2023-03-14T06:00:07;3.93;;;1.63;;
1020;SDS011;499;42.648;23.270;2023-03-14T06:02:36;1.20;;;1.10;;
1020;SDS011;499;42.648;23.270;2023-03-14T06:05:05;1.20;;;1.00;;
1020;SDS011;499;42.648;23.270;2023-03-14T06:07:36;1.63;;;1.53;;
1020;SDS011;499;42.648;23.270;2023-03-14T06:10:03;0.97;;;0.87;;
1020;SDS011;499;42.648;23.270;2023-03-14T06:12:32;1.30;;;1.20;;
1020;SDS011;499;42.648;23.270;2023-03-14T06:14:59;0.87;;;0.87;;
1020;SDS011;499;42.648;23.270;2023-03-14T06:17:26;1.10;;;1.00;;
1020;SDS011;499;42.648;23.270;2023-03-14T06:19:53;1.00;;;0.90;;
1020;SDS011;499;42.648;23.270;2023-03-14T06:22:20;1.00;;;0.90;;
1020;SDS011;499;42.648;23.270;2023-03-14T06:24:48;1.07;;;0.97;;
1020;SDS011;499;42.648;23.270;2023-03-14T06:27:15;1.10;;;1.00;;
1020;SDS011;499;42.648;23.270;2023-03-14T06:29:43;1.43;;;1.33;;
1020;SDS011;499;42.648;23.270;2023-03-14T06:32:10;1.20;;;1.10;;
1020;SDS011;499;42.648;23.270;2023-03-14T06:34:37;1.10;;;1.00;;
1020;SDS011;499;42.648;23.270;2023-03-14T06:37:07;1.40;;;1.27;;
1020;SDS011;499;42.648;23.270;2023-03-14T06:39:34;1.60;;;1.50;;
1020;SDS011;499;42.648;23.270;2023-03-14T06:42:02;1.17;;;1.07;;
1020;SDS011;499;42.648;23.270;2023-03-14T06:44:43;1.10;;;1.00;;
1020;SDS011;499;42.648;23.270;2023-03-14T06:47:10;1.00;;;0.90;;
1020;SDS011;499;42.648;23.270;2023-03-14T06:49:37;2.53;;;2.37;;
1020;SDS011;499;42.648;23.270;2023-03-14T06:52:07;1.13;;;1.03;;
1020;SDS011;499;42.648;23.270;2023-03-14T06:54:35;1.50;;;1.40;;
1020;SDS011;499;42.648;23.270;2023-03-14T06:57:01;5.73;;;3.17;;
1020;SDS011;499;42.648;23.270;2023-03-14T06:59:29;0.93;;;0.83;;
1020;SDS011;499;42.648;23.270;2023-03-14T07:01:57;1.00;;;0.90;;
1020;SDS011;499;42.648;23.270;2023-03-14T07:04:24;1.00;;;0.90;;
1020;SDS011;499;42.648;23.270;2023-03-14T07:06:51;1.20;;;1.10;;
1020;SDS011;499;42.648;23.270;2023-03-14T07:09:19;2.10;;;2.00;;
1020;SDS011;499;42.648;23.270;2023-03-14T07:11:46;0.90;;;0.80;;
1020;SDS011;499;42.648;23.270;2023-03-14T07:14:13;0.90;;;0.80;;
1020;SDS011;499;42.648;23.270;2023-03-14T07:16:40;0.80;;;0.80;;
1020;SDS011;499;42.648;23.270;2023-03-14T07:19:08;1.63;;;1.17;;
1020;SDS011;499;42.648;23.270;2023-03-14T07:21:37;1.20;;;1.10;;
1020;SDS011;499;42.648;23.270;2023-03-14T07:24:04;0.93;;;0.83;;
1020;SDS011;499;42.648;23.270;2023-03-14T07:26:34;1.13;;;1.03;;
1020;SDS011;499;42.648;23.270;2023-03-14T07:29:01;1.20;;;1.10;;
1020;SDS011;499;42.648;23.270;2023-03-14T07:31:29;1.00;;;0.90;;
1020;SDS011;499;42.648;23.270;2023-03-14T07:34:00;2.00;;;1.90;;
1020;SDS011;499;42.648;23.270;2023-03-14T07:36:28;1.43;;;1.33;;
1020;SDS011;499;42.648;23.270;2023-03-14T07:39:08;2.30;;;1.47;;
1020;SDS011;499;42.648;23.270;2023-03-14T07:41:39;0.90;;;0.80;;
1020;SDS011;499;42.648;23.270;2023-03-14T07:44:06;1.57;;;1.47;;
1020;SDS011;499;42.648;23.270;2023-03-14T07:46:33;1.60;;;1.50;;
1020;SDS011;499;42.648;23.270;2023-03-14T07:49:00;0.90;;;0.80;;
1020;SDS011;499;42.648;23.270;2023-03-14T07:51:29;0.90;;;0.70;;
1020;SDS011;499;42.648;23.270;2023-03-14T07:53:59;2.30;;;1.27;;
1020;SDS011;499;42.648;23.270;2023-03-14T07:56:27;0.90;;;0.80;;
1020;SDS011;499;42.648;23.270;2023-03-14T07:58:54;1.00;;;0.90;;
1020;SDS011;499;42.648;23.270;2023-03-14T08:01:22;0.90;;;0.80;;
1020;SDS011;499;42.648;23.270;2023-03-14T08:03:50;1.73;;;1.63;;
1020;SDS011;499;42.648;23.270;2023-03-14T08:06:17;1.40;;;1.30;;
1020;SDS011;499;42.648;23.270;2023-03-14T08:08:45;1.37;;;1.27;;
1020;SDS011;499;42.648;23.270;2023-03-14T08:11:12;0.90;;;0.80;;
1020;SDS011;499;42.648;23.270;2023-03-14T08:13:41;1.47;;;1.23;;
1020;SDS011;499;42.648;23.270;2023-03-14T08:16:14;2.10;;;0.90;;
1020;SDS011;499;42.648;23.270;2023-03-14T08:18:41;0.93;;;0.83;;
1020;SDS011;499;42.648;23.270;2023-03-14T08:21:09;0.90;;;0.70;;
1020;SDS011;499;42.648;23.270;2023-03-14T08:23:36;1.30;;;1.20;;
1020;SDS011;499;42.648;23.270;2023-03-14T08:26:06;1.40;;;1.30;;
1020;SDS011;499;42.648;23.270;2023-03-14T08:28:33;1.00;;;0.90;;
1020;SDS011;499;42.648;23.270;2023-03-14T08:31:00;1.07;;;0.97;;
1020;SDS011;499;42.648;23.270;2023-03-14T08:33:28;0.90;;;0.80;;
1020;SDS011;499;42.648;23.270;2023-03-14T08:35:56;2.07;;;1.97;;
1020;SDS011;499;42.648;23.270;2023-03-14T08:38:24;2.87;;;2.60;;
1020;SDS011;499;42.648;23.270;2023-03-14T08:40:54;0.90;;;0.73;;
1020;SDS011;499;42.648;23.270;2023-03-14T08:43:24;1.30;;;0.97;;
1020;SDS011;499;42.648;23.270;2023-03-14T08:45:51;0.93;;;0.80;;
1020;SDS011;499;42.648;23.270;2023-03-14T08:48:18;1.23;;;1.13;;
1020;SDS011;499;42.648;23.270;2023-03-14T08:50:46;0.90;;;0.80;;
1020;SDS011;499;42.648;23.270;2023-03-14T08:53:13;1.00;;;0.90;;
1020;SDS011;499;42.648;23.270;2023-03-14T08:55:43;0.90;;;0.60;;
1020;SDS011;499;42.648;23.270;2023-03-14T08:58:10;1.27;;;0.90;;
1020;SDS011;499;42.648;23.270;2023-03-14T09:00:39;1.20;;;1.10;;
1020;SDS011;499;42.648;23.270;2023-03-14T09:03:06;2.60;;;1.57;;
1020;SDS011;499;42.648;23.270;2023-03-14T09:05:33;1.10;;;1.00;;
1020;SDS011;499;42.648;23.270;2023-03-14T09:08:00;1.93;;;1.20;;
1020;SDS011;499;42.648;23.270;2023-03-14T09:10:27;0.90;;;0.80;;
1020;SDS011;499;42.648;23.270;2023-03-14T09:12:58;2.70;;;2.50;;
1020;SDS011;499;42.648;23.270;2023-03-14T09:15:25;0.90;;;0.70;;
1020;SDS011;499;42.648;23.270;2023-03-14T09:17:55;1.10;;;0.90;;
1020;SDS011;499;42.648;23.270;2023-03-14T09:20:22;2.30;;;1.00;;
1020;SDS011;499;42.648;23.270;2023-03-14T09:22:49;1.17;;;0.97;;
1020;SDS011;499;42.648;23.270;2023-03-14T09:25:16;1.30;;;0.93;;
1020;SDS011;499;42.648;23.270;2023-03-14T09:27:43;0.90;;;0.70;;
1020;SDS011;499;42.648;23.270;2023-03-14T09:30:11;0.90;;;0.70;;
1020;SDS011;499;42.648;23.270;2023-03-14T09:32:38;1.30;;;1.20;;
1020;SDS011;499;42.648;23.270;2023-03-14T09:35:09;1.37;;;1.27;;
1020;SDS011;499;42.648;23.270;2023-03-14T09:37:36;0.90;;;0.70;;
1020;SDS011;499;42.648;23.270;2023-03-14T09:40:04;2.50;;;1.00;;
1020;SDS011;499;42.648;23.270;2023-03-14T09:42:37;1.20;;;1.10;;
1020;SDS011;499;42.648;23.270;2023-03-14T09:45:06;1.37;;;1.27;;
1020;SDS011;499;42.648;23.270;2023-03-14T09:47:38;1.83;;;1.57;;
1020;SDS011;499;42.648;23.270;2023-03-14T09:50:10;1.00;;;0.83;;
1020;SDS011;499;42.648;23.270;2023-03-14T09:52:40;1.00;;;0.70;;
1020;SDS011;499;42.648;23.270;2023-03-14T09:55:11;2.03;;;1.63;;
1020;SDS011;499;42.648;23.270;2023-03-14T09:57:41;0.90;;;0.80;;
1020;SDS011;499;42.648;23.270;2023-03-14T10:00:13;2.03;;;1.37;;
1020;SDS011;499;42.648;23.270;2023-03-14T10:02:42;1.83;;;1.47;;
1020;SDS011;499;42.648;23.270;2023-03-14T10:05:15;1.47;;;0.90;;
1020;SDS011;499;42.648;23.270;2023-03-14T10:07:43;1.33;;;0.93;;
1020;SDS011;499;42.648;23.270;2023-03-14T10:10:11;2.53;;;1.10;;
1020;SDS011;499;42.648;23.270;2023-03-14T10:12:44;1.20;;;1.00;;
1020;SDS011;499;42.648;23.270;2023-03-14T10:15:13;4.47;;;3.00;;
1020;SDS011;499;42.648;23.270;2023-03-14T10:17:48;3.47;;;2.80;;
1020;SDS011;499;42.648;23.270;2023-03-14T10:20:29;4.47;;;2.73;;
1020;SDS011;499;42.648;23.270;2023-03-14T10:23:01;3.10;;;1.47;;
1020;SDS011;499;42.648;23.270;2023-03-14T10:25:31;1.67;;;1.20;;
1020;SDS011;499;42.648;23.270;2023-03-14T10:27:59;3.80;;;3.10;;
1020;SDS011;499;42.648;23.270;2023-03-14T10:30:27;4.60;;;2.93;;
1020;SDS011;499;42.648;23.270;2023-03-14T10:33:00;3.57;;;2.97;;
1020;SDS011;499;42.648;23.270;2023-03-14T10:35:37;3.80;;;3.07;;
1020;SDS011;499;42.648;23.270;2023-03-14T10:38:04;4.80;;;3.23;;
1020;SDS011;499;42.648;23.270;2023-03-14T10:40:31;2.47;;;2.13;;
1020;SDS011;499;42.648;23.270;2023-03-14T10:43:04;3.87;;;2.93;;
1020;SDS011;499;42.648;23.270;2023-03-14T10:45:35;4.00;;;3.17;;
1020;SDS011;499;42.648;23.270;2023-03-14T10:48:18;4.43;;;2.40;;
1020;SDS011;499;42.648;23.270;2023-03-14T10:50:57;3.30;;;2.43;;
1020;SDS011;499;42.648;23.270;2023-03-14T10:53:34;4.40;;;3.80;;
1020;SDS011;499;42.648;23.270;2023-03-14T10:56:07;3.70;;;2.80;;
1020;SDS011;499;42.648;23.270;2023-03-14T10:58:38;3.27;;;2.60;;
1020;SDS011;499;42.648;23.270;2023-03-14T11:01:17;3.13;;;2.03;;
1020;SDS011;499;42.648;23.270;2023-03-14T11:04:00;3.80;;;2.60;;
1020;SDS011;499;42.648;23.270;2023-03-14T11:06:38;3.23;;;2.93;;
1020;SDS011;499;42.648;23.270;2023-03-14T11:09:12;3.43;;;2.37;;
1020;SDS011;499;42.648;23.270;2023-03-14T11:11:45;3.20;;;2.30;;
1020;SDS011;499;42.648;23.270;2023-03-14T11:14:25;4.03;;;3.07;;
1020;SDS011;499;42.648;23.270;2023-03-14T11:16:59;2.93;;;1.90;;
1020;SDS011;499;42.648;23.270;2023-03-14T11:22:22;3.00;;;2.47;;
1020;SDS011;499;42.648;23.270;2023-03-14T11:25:02;3.03;;;2.00;;
1020;SDS011;499;42.648;23.270;2023-03-14T11:27:41;2.77;;;2.30;;
1020;SDS011;499;42.648;23.270;2023-03-14T11:30:16;2.80;;;1.87;;
1020;SDS011;499;42.648;23.270;2023-03-14T11:32:54;4.10;;;2.30;;
1020;SDS011;499;42.648;23.270;2023-03-14T11:35:28;3.57;;;2.83;;
1020;SDS011;499;42.648;23.270;2023-03-14T11:38:03;2.77;;;2.30;;
1020;SDS011;499;42.648;23.270;2023-03-14T11:40:38;3.20;;;2.67;;
1020;SDS011;499;42.648;23.270;2023-03-14T11:43:10;1.77;;;1.67;;
1020;SDS011;499;42.648;23.270;2023-03-14T11:45:45;2.30;;;1.77;;
1020;SDS011;499;42.648;23.270;2023-03-14T11:48:24;3.03;;;2.10;;
1020;SDS011;499;42.648;23.270;2023-03-14T11:51:00;3.67;;;3.37;;
1020;SDS011;499;42.648;23.270;2023-03-14T11:53:36;2.20;;;1.70;;
1020;SDS011;499;42.648;23.270;2023-03-14T11:56:10;2.33;;;1.40;;
1020;SDS011;499;42.648;23.270;2023-03-14T11:58:50;2.50;;;1.70;;
1020;SDS011;499;42.648;23.270;2023-03-14T12:01:21;4.03;;;2.37;;
1020;SDS011;499;42.648;23.270;2023-03-14T12:03:54;2.13;;;1.80;;
1020;SDS011;499;42.648;23.270;2023-03-14T12:06:31;2.50;;;2.30;;
1020;SDS011;499;42.648;23.270;2023-03-14T12:09:05;2.00;;;1.57;;
1020;SDS011;499;42.648;23.270;2023-03-14T12:11:35;2.27;;;1.70;;
1020;SDS011;499;42.648;23.270;2023-03-14T12:14:17;3.10;;;1.70;;
1020;SDS011;499;42.648;23.270;2023-03-14T12:16:52;3.70;;;3.10;;
1020;SDS011;499;42.648;23.270;2023-03-14T12:19:26;2.33;;;1.93;;
1020;SDS011;499;42.648;23.270;2023-03-14T12:22:05;1.93;;;1.70;;
1020;SDS011;499;42.648;23.270;2023-03-14T12:24:44;1.90;;;1.40;;
1020;SDS011;499;42.648;23.270;2023-03-14T12:30:24;1.90;;;1.20;;
1020;SDS011;499;42.648;23.270;2023-03-14T12:35:57;1.50;;;0.80;;
1020;SDS011;499;42.648;23.270;2023-03-14T12:38:43;2.73;;;1.33;;
1020;SDS011;499;42.648;23.270;2023-03-14T12:41:34;1.43;;;1.07;;
1020;SDS011;499;42.648;23.270;2023-03-14T12:50:13;1.40;;;1.10;;
1020;SDS011;499;42.648;23.270;2023-03-14T12:52:46;1.70;;;1.13;;
1020;SDS011;499;42.648;23.270;2023-03-14T12:55:33;1.93;;;1.33;;
1020;SDS011;499;42.648;23.270;2023-03-14T12:58:08;1.87;;;1.00;;
1020;SDS011;499;42.648;23.270;2023-03-14T13:00:42;2.37;;;1.70;;
1020;SDS011;499;42.648;23.270;2023-03-14T13:03:15;1.17;;;0.80;;
1020;SDS011;499;42.648;23.270;2023-03-14T13:05:53;1.40;;;0.80;;
1020;SDS011;499;42.648;23.270;2023-03-14T13:08:32;1.60;;;1.03;;
1020;SDS011;499;42.648;23.270;2023-03-14T13:11:02;1.13;;;0.77;;
1020;SDS011;499;42.648;23.270;2023-03-14T13:13:33;2.00;;;1.20;;
1020;SDS011;499;42.648;23.270;2023-03-14T13:16:04;1.50;;;1.10;;
1020;SDS011;499;42.648;23.270;2023-03-14T13:18:34;1.57;;;1.00;;
1020;SDS011;499;42.648;23.270;2023-03-14T13:21:03;1.80;;;1.13;;
1020;SDS011;499;42.648;23.270;2023-03-14T13:23:34;1.40;;;1.03;;
1020;SDS011;499;42.648;23.270;2023-03-14T13:26:05;1.40;;;1.00;;
1020;SDS011;499;42.648;23.270;2023-03-14T13:28:39;1.90;;;1.60;;
1020;SDS011;499;42.648;23.270;2023-03-14T13:31:12;2.43;;;1.23;;
1020;SDS011;499;42.648;23.270;2023-03-14T13:33:55;1.80;;;1.03;;
1020;SDS011;499;42.648;23.270;2023-03-14T13:36:23;1.40;;;1.00;;
1020;SDS011;499;42.648;23.270;2023-03-14T13:38:55;2.10;;;1.43;;
1020;SDS011;499;42.648;23.270;2023-03-14T13:41:24;1.60;;;1.10;;
1020;SDS011;499;42.648;23.270;2023-03-14T13:44:01;1.90;;;1.20;;
1020;SDS011;499;42.648;23.270;2023-03-14T13:46:32;2.10;;;1.00;;
1020;SDS011;499;42.648;23.270;2023-03-14T13:49:01;1.20;;;0.80;;
1020;SDS011;499;42.648;23.270;2023-03-14T13:51:30;1.90;;;1.40;;
1020;SDS011;499;42.648;23.270;2023-03-14T13:53:59;4.13;;;1.20;;
1020;SDS011;499;42.648;23.270;2023-03-14T13:56:28;1.50;;;1.00;;
1020;SDS011;499;42.648;23.270;2023-03-14T13:58:57;1.93;;;1.27;;
1020;SDS011;499;42.648;23.270;2023-03-14T14:01:26;1.87;;;1.50;;
1020;SDS011;499;42.648;23.270;2023-03-14T14:03:56;2.00;;;1.13;;
1020;SDS011;499;42.648;23.270;2023-03-14T14:06:29;1.57;;;1.10;;
1020;SDS011;499;42.648;23.270;2023-03-14T14:09:00;1.90;;;0.70;;
1020;SDS011;499;42.648;23.270;2023-03-14T14:11:32;1.60;;;1.20;;
1020;SDS011;499;42.648;23.270;2023-03-14T14:14:06;4.03;;;2.47;;
1020;SDS011;499;42.648;23.270;2023-03-14T14:16:37;1.70;;;1.00;;
1020;SDS011;499;42.648;23.270;2023-03-14T14:19:05;2.33;;;0.70;;
1020;SDS011;499;42.648;23.270;2023-03-14T14:21:32;1.50;;;1.10;;
1020;SDS011;499;42.648;23.270;2023-03-14T14:23:59;1.30;;;0.97;;
1020;SDS011;499;42.648;23.270;2023-03-14T14:26:27;1.57;;;0.90;;
1020;SDS011;499;42.648;23.270;2023-03-14T14:29:01;3.10;;;1.33;;
1020;SDS011;499;42.648;23.270;2023-03-14T14:31:31;1.20;;;0.77;;
1020;SDS011;499;42.648;23.270;2023-03-14T14:33:58;1.10;;;0.87;;
1020;SDS011;499;42.648;23.270;2023-03-14T14:36:27;1.53;;;1.27;;
1020;SDS011;499;42.648;23.270;2023-03-14T14:38:57;1.10;;;0.73;;
1020;SDS011;499;42.648;23.270;2023-03-14T14:41:26;1.67;;;0.90;;
1020;SDS011;499;42.648;23.270;2023-03-14T14:43:56;1.30;;;0.80;;
1020;SDS011;499;42.648;23.270;2023-03-14T14:46:26;1.40;;;1.00;;
1020;SDS011;499;42.648;23.270;2023-03-14T14:48:57;1.40;;;1.10;;
1020;SDS011;499;42.648;23.270;2023-03-14T14:51:31;1.50;;;0.97;;
1020;SDS011;499;42.648;23.270;2023-03-14T14:54:02;1.10;;;0.80;;
1020;SDS011;499;42.648;23.270;2023-03-14T14:56:39;1.30;;;1.03;;
1020;SDS011;499;42.648;23.270;2023-03-14T14:59:18;1.53;;;1.17;;
1020;SDS011;499;42.648;23.270;2023-03-14T15:01:48;1.50;;;0.93;;
1020;SDS011;499;42.648;23.270;2023-03-14T15:04:18;1.47;;;0.97;;
1020;SDS011;499;42.648;23.270;2023-03-14T15:06:46;1.27;;;0.90;;
1020;SDS011;499;42.648;23.270;2023-03-14T15:09:22;1.93;;;0.93;;
1020;SDS011;499;42.648;23.270;2023-03-14T15:11:49;1.87;;;1.20;;
1020;SDS011;499;42.648;23.270;2023-03-14T15:14:16;1.93;;;1.30;;
1020;SDS011;499;42.648;23.270;2023-03-14T15:16:43;1.70;;;1.43;;
1020;SDS011;499;42.648;23.270;2023-03-14T15:19:11;1.57;;;1.13;;
1020;SDS011;499;42.648;23.270;2023-03-14T15:21:44;1.90;;;1.57;;
1020;SDS011;499;42.648;23.270;2023-03-14T15:24:11;4.27;;;1.20;;
1020;SDS011;499;42.648;23.270;2023-03-14T15:26:38;78.93;;;35.87;;
1020;SDS011;499;42.648;23.270;2023-03-14T15:29:08;64.23;;;30.73;;
1020;SDS011;499;42.648;23.270;2023-03-14T15:31:37;70.73;;;34.47;;
1020;SDS011;499;42.648;23.270;2023-03-14T15:34:04;8.47;;;5.00;;
1020;SDS011;499;42.648;23.270;2023-03-14T15:36:32;139.77;;;64.10;;
1020;SDS011;499;42.648;23.270;2023-03-14T15:39:02;129.67;;;58.37;;
1020;SDS011;499;42.648;23.270;2023-03-14T15:41:36;55.40;;;24.60;;
1020;SDS011;499;42.648;23.270;2023-03-14T15:44:03;52.23;;;23.10;;
1020;SDS011;499;42.648;23.270;2023-03-14T15:46:30;28.30;;;14.33;;
1020;SDS011;499;42.648;23.270;2023-03-14T15:48:57;19.63;;;8.70;;